Time;durP1;ratioP1;P1;durP2;ratioP2;P2;SDS_P1;SDS_P2;PMS_P1;PMS_P2;Temp;Humidity;BMP_temperature;BMP_pressure;BME280_temperature;BME280_humidity;BME280_pressure;Samples;Min_cycle;Max_cycle;Signal;HPM_P1;HPM_P2
2022/01/11 00:00:04;;;;;;;36.15;15.93;;;;;;;-2.06;67.30;99745.81;5108775;28;20027;-69
2022/01/11 00:02:31;;;;;;;39.00;16.83;;;;;;;-2.05;67.46;99756.41;5109245;28;20445;-68
2022/01/11 00:04:56;;;;;;;36.28;18.67;;;;;;;-2.04;67.11;99759.94;5108682;28;20560;-68
2022/01/11 00:07:23;;;;;;;41.63;16.80;;;;;;;-2.07;66.76;99765.66;5090612;28;20027;-68
2022/01/11 00:09:50;;;;;;;36.50;14.68;;;;;;;-2.14;66.65;99765.56;5109353;28;20065;-68
2022/01/11 00:12:16;;;;;;;32.30;13.50;;;;;;;-2.17;66.70;99766.75;5108737;28;20054;-68
2022/01/11 00:14:41;;;;;;;29.52;12.30;;;;;;;-2.21;66.25;99775.34;5108318;28;20071;-68
2022/01/11 00:17:07;;;;;;;27.05;12.45;;;;;;;-2.23;66.18;99777.41;5108428;28;20059;-68
2022/01/11 00:19:33;;;;;;;28.35;12.73;;;;;;;-2.26;66.61;99768.66;5109139;28;20056;-68
2022/01/11 00:22:01;;;;;;;27.80;13.23;;;;;;;-2.29;66.15;99769.03;5108788;28;20034;-68
2022/01/11 00:24:30;;;;;;;23.20;11.23;;;;;;;-2.27;66.26;99774.25;5108605;28;20038;-68
2022/01/11 00:27:08;;;;;;;26.15;11.75;;;;;;;-2.31;65.99;99775.63;5108304;28;20046;-68
2022/01/11 00:29:36;;;;;;;21.48;9.73;;;;;;;-2.36;65.54;99775.31;5108680;28;20410;-69
2022/01/11 00:32:07;;;;;;;24.40;10.05;;;;;;;-2.40;66.03;99777.50;5108660;28;20058;-68
2022/01/11 00:34:50;;;;;;;24.17;10.60;;;;;;;-2.45;65.56;99779.91;5109530;28;20085;-68
2022/01/11 00:37:18;;;;;;;22.35;9.73;;;;;;;-2.47;65.54;99781.94;5111943;28;20047;-69
2022/01/11 00:39:45;;;;;;;21.13;10.52;;;;;;;-2.44;65.93;99778.88;5094339;28;20141;-68
2022/01/11 00:42:13;;;;;;;21.83;10.35;;;;;;;-2.36;66.14;99786.06;5093086;28;20046;-68
2022/01/11 00:44:38;;;;;;;20.80;9.80;;;;;;;-2.30;66.11;99791.53;5112648;28;20027;-68
2022/01/11 00:47:04;;;;;;;22.45;11.00;;;;;;;-2.26;65.82;99787.47;5111947;28;20034;-68
2022/01/11 00:49:30;;;;;;;24.35;11.27;;;;;;;-2.26;65.95;99792.84;5112794;28;20035;-68
2022/01/11 00:51:55;;;;;;;27.90;12.98;;;;;;;-2.25;66.06;99791.03;5112581;28;20429;-67
2022/01/11 00:54:20;;;;;;;26.88;12.55;;;;;;;-2.27;65.71;99787.69;5112118;28;20011;-69
2022/01/11 00:56:46;;;;;;;22.10;11.70;;;;;;;-2.26;65.98;99781.28;5111737;28;20471;-68
2022/01/11 00:59:11;;;;;;;25.13;12.25;;;;;;;-2.29;65.79;99792.41;5112298;28;20027;-68
2022/01/11 01:01:37;;;;;;;26.45;11.40;;;;;;;-2.25;66.09;99791.03;5111923;28;20081;-69
2022/01/11 01:04:08;;;;;;;25.95;12.50;;;;;;;-2.28;65.60;99789.50;5111954;28;20031;-68
2022/01/11 01:06:33;;;;;;;;;;;;;;;-2.26;65.75;99792.03;5112156;28;20097;-68
2022/01/11 01:08:59;;;;;;;34.42;13.25;;;;;;;-2.27;65.66;99795.75;5112267;28;19912;-69
2022/01/11 01:11:25;;;;;;;29.17;12.30;;;;;;;-2.25;65.81;99785.66;5112814;28;20520;-68
2022/01/11 01:13:51;;;;;;;28.88;12.73;;;;;;;-2.27;65.73;99785.81;5112044;28;20374;-68
2022/01/11 01:16:16;;;;;;;25.38;12.15;;;;;;;-2.25;65.58;99783.78;5093682;28;20020;-68
2022/01/11 01:18:42;;;;;;;21.80;10.70;;;;;;;-2.25;65.66;99780.28;5094332;28;20027;-68
2022/01/11 01:21:07;;;;;;;21.52;10.10;;;;;;;-2.26;65.32;99789.34;5112599;28;20047;-68
2022/01/11 01:23:34;;;;;;;23.67;10.70;;;;;;;-2.24;65.25;99787.28;5112251;28;20035;-68
2022/01/11 01:26:00;;;;;;;24.83;11.52;;;;;;;-2.23;65.23;99782.75;5111954;28;20054;-68
2022/01/11 01:28:26;;;;;;;21.08;11.20;;;;;;;-2.19;65.41;99787.59;5091086;28;20023;-68
2022/01/11 01:30:53;;;;;;;23.23;11.10;;;;;;;-2.18;65.35;99789.25;5112588;28;20019;-68
2022/01/11 01:33:20;;;;;;;22.30;10.82;;;;;;;-2.16;65.07;99789.91;5112458;28;20031;-68
2022/01/11 01:35:51;;;;;;;20.65;10.52;;;;;;;-2.18;64.94;99786.56;5111796;28;20028;-68
2022/01/11 01:38:22;;;;;;;22.08;10.32;;;;;;;-2.21;64.77;99783.44;5111531;28;20023;-69
2022/01/11 01:40:50;;;;;;;22.70;11.18;;;;;;;-2.23;64.51;99791.66;5093180;28;20163;-70
2022/01/11 01:43:15;;;;;;;21.98;10.27;;;;;;;-2.24;64.45;99789.97;5111709;28;20027;-69
2022/01/11 01:45:46;;;;;;;28.20;11.35;;;;;;;-2.24;64.72;99784.59;5111194;28;20544;-69
2022/01/11 01:48:17;;;;;;;24.27;10.82;;;;;;;-2.26;64.60;99794.72;5110981;28;20099;-69
2022/01/11 01:50:43;;;;;;;19.60;10.23;;;;;;;-2.28;64.34;99794.06;5111769;28;20024;-69
2022/01/11 01:53:11;;;;;;;24.27;10.70;;;;;;;-2.29;64.30;99797.78;5111392;28;20556;-69
2022/01/11 01:55:39;;;;;;;21.70;9.98;;;;;;;-2.27;64.26;99806.50;5110902;28;20023;-69
2022/01/11 01:58:05;;;;;;;18.35;9.40;;;;;;;-2.28;64.19;99805.63;5111209;28;20494;-68
2022/01/11 02:00:30;;;;;;;19.70;10.02;;;;;;;-2.27;64.25;99806.50;5111304;28;20031;-68
2022/01/11 02:03:05;;;;;;;19.50;9.50;;;;;;;-2.25;64.35;99802.59;5110983;28;20454;-68
2022/01/11 02:05:30;;;;;;;19.00;9.40;;;;;;;-2.25;64.14;99799.09;5108052;28;20023;-68
2022/01/11 02:07:56;;;;;;;19.98;9.02;;;;;;;-2.27;63.73;99799.25;5110848;28;20479;-68
2022/01/11 02:10:21;;;;;;;19.20;9.43;;;;;;;-2.25;64.42;99802.59;5110878;28;20486;-68
2022/01/11 02:12:47;;;;;;;21.20;9.88;;;;;;;-2.24;64.47;99808.78;5111324;27;20015;-68
2022/01/11 02:15:13;;;;;;;18.52;8.50;;;;;;;-2.21;64.43;99813.81;5110802;28;20028;-69
2022/01/11 02:17:39;;;;;;;19.85;9.02;;;;;;;-2.19;64.48;99808.28;5110626;28;20171;-69
2022/01/11 02:20:05;;;;;;;20.13;9.25;;;;;;;-2.17;64.32;99817.81;5111150;28;20019;-69
2022/01/11 02:22:30;;;;;;;26.35;12.20;;;;;;;-2.19;64.45;99824.41;5092566;28;20038;-69
2022/01/11 02:24:55;;;;;;;25.30;11.15;;;;;;;-2.18;64.11;99826.06;5110118;28;20391;-69
2022/01/11 02:27:21;;;;;;;26.30;11.63;;;;;;;-2.23;63.55;99823.91;5110345;28;20058;-70
2022/01/11 02:29:47;;;;;;;24.27;11.18;;;;;;;-2.27;63.97;99834.19;5092492;28;20220;-69
2022/01/11 02:32:13;;;;;;;29.17;12.70;;;;;;;-2.29;64.05;99838.09;5092250;28;20062;-69
2022/01/11 02:34:38;;;;;;;23.75;10.95;;;;;;;-2.30;63.81;99836.41;5091791;28;20047;-69
2022/01/11 02:37:04;;;;;;;24.15;11.57;;;;;;;-2.29;64.26;99836.22;5109937;28;20015;-69
2022/01/11 02:39:30;;;;;;;23.30;11.50;;;;;;;-2.24;64.16;99835.66;5110681;28;20027;-71
2022/01/11 02:41:57;;;;;;;29.55;12.32;;;;;;;-2.26;63.79;99830.47;5110654;28;20036;-69
2022/01/11 02:44:23;;;;;;;27.95;11.57;;;;;;;-2.30;63.89;99828.34;5110425;28;20077;-69
2022/01/11 02:46:48;;;;;;;21.83;10.88;;;;;;;-2.34;63.46;99838.59;5110238;28;20024;-69
2022/01/11 02:49:14;;;;;;;26.20;11.23;;;;;;;-2.34;63.58;99840.47;5110465;28;20092;-69
2022/01/11 02:51:39;;;;;;;24.38;10.60;;;;;;;-2.36;64.22;99834.44;5110396;28;20031;-70
2022/01/11 02:54:05;;;;;;;20.02;10.32;;;;;;;-2.38;63.45;99842.66;5109707;28;20027;-70
2022/01/11 02:56:31;;;;;;;23.75;11.88;;;;;;;-2.37;63.40;99840.81;5109675;28;20037;-69
2022/01/11 02:58:57;;;;;;;22.15;11.15;;;;;;;-2.37;63.49;99841.63;5108698;28;20031;-69
2022/01/11 03:01:22;;;;;;;22.95;10.50;;;;;;;-2.38;63.40;99850.72;5110401;28;20471;-69
2022/01/11 03:03:48;;;;;;;27.40;12.18;;;;;;;-2.41;63.53;99845.69;5109767;28;20031;-69
2022/01/11 03:06:14;;;;;;;25.95;12.43;;;;;;;-2.42;63.33;99849.38;5107075;27;20015;-69
2022/01/11 03:08:44;;;;;;;25.88;10.70;;;;;;;-2.42;63.49;99841.31;5108224;28;20525;-69
2022/01/11 03:11:11;;;;;;;22.40;9.93;;;;;;;-2.44;62.45;99849.56;5091275;28;20491;-69
2022/01/11 03:13:38;;;;;;;23.88;11.98;;;;;;;-2.48;62.78;99850.94;5091635;28;20174;-69
2022/01/11 03:16:04;;;;;;;22.42;10.60;;;;;;;-2.49;63.02;99851.97;5110797;28;20048;-68
2022/01/11 03:18:30;;;;;;;20.33;10.40;;;;;;;-2.50;62.95;99850.28;5110463;28;20097;-69
2022/01/11 03:20:55;;;;;;;23.45;10.52;;;;;;;-2.52;63.10;99855.00;5111129;28;20489;-69
2022/01/11 03:23:22;;;;;;;28.02;13.05;;;;;;;-2.56;62.91;99853.66;5091842;28;20048;-69
2022/01/11 03:25:49;;;;;;;28.17;11.85;;;;;;;-2.61;63.40;99859.59;5110327;28;20479;-69
2022/01/11 03:28:14;;;;;;;27.38;12.38;;;;;;;-2.64;63.45;99856.38;5110049;28;20512;-69
2022/01/11 03:30:40;;;;;;;22.90;10.90;;;;;;;-2.68;62.76;99863.16;5110576;28;20024;-69
2022/01/11 03:33:08;;;;;;;22.80;11.45;;;;;;;-2.72;63.18;99868.03;5110349;28;20595;-69
2022/01/11 03:35:36;;;;;;;24.27;11.65;;;;;;;-2.75;63.03;99868.38;5109513;28;20183;-68
2022/01/11 03:38:04;;;;;;;48.13;19.33;;;;;;;-2.80;63.02;99871.59;5110368;28;20054;-69
2022/01/11 03:40:29;;;;;;;54.40;22.25;;;;;;;-2.83;63.11;99874.63;5110046;28;20122;-69
2022/01/11 03:42:55;;;;;;;140.43;40.97;;;;;;;-2.90;62.70;99870.94;5110509;28;20106;-68
2022/01/11 03:45:21;;;;;;;318.13;92.35;;;;;;;-2.93;62.52;99871.28;5110135;28;20024;-69
2022/01/11 03:47:48;;;;;;;196.82;69.60;;;;;;;-2.98;62.66;99874.50;5110088;28;20028;-69
2022/01/11 03:50:13;;;;;;;212.40;82.22;;;;;;;-3.03;62.93;99887.59;5110086;28;20027;-69
2022/01/11 03:52:40;;;;;;;452.85;169.20;;;;;;;-3.02;63.28;99884.72;5110322;28;20027;-69
2022/01/11 03:55:12;;;;;;;307.15;102.68;;;;;;;-3.00;63.33;99880.03;5109832;28;20468;-69
2022/01/11 03:57:39;;;;;;;390.92;107.95;;;;;;;-2.93;63.18;99892.75;5109974;28;20031;-69
2022/01/11 04:00:14;;;;;;;488.75;123.50;;;;;;;-2.90;63.45;99890.59;5110052;28;20032;-69
2022/01/11 04:02:41;;;;;;;419.90;93.18;;;;;;;-2.86;63.18;99899.13;5107340;28;20062;-69
2022/01/11 04:05:07;;;;;;;360.27;75.20;;;;;;;-2.85;63.28;99901.63;5108705;28;20023;-69
2022/01/11 04:07:33;;;;;;;251.98;53.22;;;;;;;-2.84;63.81;99908.66;5108723;28;20356;-69
2022/01/11 04:10:00;;;;;;;249.10;55.60;;;;;;;-2.83;63.16;99906.84;5109663;28;20073;-69
2022/01/11 04:12:25;;;;;;;57.40;18.95;;;;;;;-2.85;63.00;99907.00;5112598;28;20073;-68
2022/01/11 04:14:51;;;;;;;206.85;45.63;;;;;;;-2.85;62.90;99906.16;5112857;28;20015;-69
2022/01/11 04:17:17;;;;;;;201.88;46.38;;;;;;;-2.84;63.27;99910.53;5112995;28;20044;-69
2022/01/11 04:19:42;;;;;;;138.80;34.10;;;;;;;-2.83;63.20;99906.84;5113086;28;20035;-69
2022/01/11 04:22:08;;;;;;;186.30;41.28;;;;;;;-2.81;63.30;99920.06;5112951;28;20026;-69
2022/01/11 04:24:33;;;;;;;176.50;40.67;;;;;;;-2.81;63.10;99920.06;5112367;28;20028;-69
2022/01/11 04:26:59;;;;;;;99.85;26.23;;;;;;;-2.82;62.89;99915.72;5112418;28;20115;-69
2022/01/11 04:29:24;;;;;;;104.78;28.40;;;;;;;-2.83;62.92;99906.84;5094535;28;20552;-70
2022/01/11 04:31:50;;;;;;;117.43;29.58;;;;;;;-2.83;63.15;99909.53;5112495;28;20026;-69
2022/01/11 04:34:15;;;;;;;55.78;16.92;;;;;;;-2.81;63.20;99909.34;5113033;28;20475;-69
2022/01/11 04:36:41;;;;;;;34.22;13.05;;;;;;;-2.83;63.25;99904.16;5112727;28;20023;-69
2022/01/11 04:39:09;;;;;;;106.97;25.80;;;;;;;-2.84;62.93;99913.22;5112856;28;20026;-69
2022/01/11 04:41:35;;;;;;;48.35;15.95;;;;;;;-2.85;63.36;99917.72;5112451;28;20052;-70
2022/01/11 04:44:01;;;;;;;64.68;18.77;;;;;;;-2.84;63.39;99915.91;5113064;28;20127;-69
2022/01/11 04:46:27;;;;;;;94.00;24.50;;;;;;;-2.85;63.19;99917.72;5093828;28;20126;-69
2022/01/11 04:48:53;;;;;;;124.68;31.85;;;;;;;-2.80;63.26;99917.22;5112708;28;20024;-68
2022/01/11 04:51:20;;;;;;;124.10;30.67;;;;;;;-2.76;63.49;99918.56;5112469;28;20034;-69
2022/01/11 04:53:47;;;;;;;129.35;32.97;;;;;;;-2.74;63.56;99915.69;5113377;28;20023;-69
2022/01/11 04:56:13;;;;;;;100.32;29.02;;;;;;;-2.71;63.55;99924.25;5113016;28;20051;-69
2022/01/11 04:58:38;;;;;;;127.43;33.65;;;;;;;-2.72;63.22;99925.28;5094604;28;20028;-70
2022/01/11 05:01:04;;;;;;;105.25;28.95;;;;;;;-2.71;63.21;99929.63;5095629;28;20387;-69
2022/01/11 05:03:30;;;;;;;125.63;35.13;;;;;;;-2.69;63.45;99929.44;5112934;28;20045;-69
2022/01/11 05:05:55;;;;;;;83.70;26.23;;;;;;;-2.73;63.58;99934.34;5113776;28;20024;-69
2022/01/11 05:08:21;;;;;;;113.53;33.90;;;;;;;-2.78;63.28;99935.84;5113074;28;20510;-69
2022/01/11 05:10:46;;;;;;;161.38;48.20;;;;;;;-2.83;63.37;99939.06;5113180;28;20046;-69
2022/01/11 05:13:13;;;;;;;77.35;28.60;;;;;;;-2.89;63.02;99937.91;5112885;28;20052;-69
2022/01/11 05:15:40;;;;;;;51.38;21.10;;;;;;;-2.89;63.04;99943.28;5111819;28;20479;-68
2022/01/11 05:18:09;;;;;;;65.82;25.63;;;;;;;-2.91;63.29;99941.75;5095123;28;20035;-69
2022/01/11 05:20:36;;;;;;;87.57;30.45;;;;;;;-2.94;63.45;99942.94;5112618;28;20078;-68
2022/01/11 05:23:02;;;;;;;98.43;33.90;;;;;;;-2.94;63.36;99948.31;5111975;28;20023;-68
2022/01/11 05:25:27;;;;;;;101.57;34.88;;;;;;;-2.97;63.59;99945.97;5112885;28;20050;-68
2022/01/11 05:27:53;;;;;;;104.25;36.70;;;;;;;-3.02;63.53;99951.84;5112947;28;20099;-67
2022/01/11 05:30:19;;;;;;;95.07;30.73;;;;;;;-3.10;63.37;99959.94;5094499;28;20387;-67
2022/01/11 05:32:44;;;;;;;111.60;36.17;;;;;;;-3.19;63.35;99963.63;5112775;28;20023;-67
2022/01/11 05:35:12;;;;;;;106.95;33.85;;;;;;;-3.31;63.45;99974.69;5112703;28;20035;-68
2022/01/11 05:37:38;;;;;;;83.63;27.75;;;;;;;-3.39;63.89;99965.81;5112381;28;20020;-67
2022/01/11 05:40:06;;;;;;;33.72;15.13;;;;;;;-3.42;63.60;99972.34;5112608;28;20040;-68
2022/01/11 05:42:32;;;;;;;54.17;21.00;;;;;;;-3.45;63.77;99968.16;5112595;28;20035;-68
2022/01/11 05:44:57;;;;;;;26.33;11.45;;;;;;;-3.40;64.18;99970.31;5112996;28;20429;-68
2022/01/11 05:47:23;;;;;;;28.55;12.43;;;;;;;-3.40;64.26;99974.88;5110120;27;20028;-66
2022/01/11 05:49:49;;;;;;;30.02;13.82;;;;;;;-3.35;64.51;99975.22;5111832;28;20019;-66
2022/01/11 05:52:14;;;;;;;22.08;9.98;;;;;;;-3.31;64.80;99974.69;5107032;28;20020;-67
2022/01/11 05:54:40;;;;;;;23.52;11.63;;;;;;;-3.27;64.16;99972.53;5110514;28;20039;-68
2022/01/11 05:57:05;;;;;;;27.65;12.60;;;;;;;-3.21;64.80;99977.19;5109656;28;20028;-66
2022/01/11 05:59:31;;;;;;;39.40;16.95;;;;;;;-3.17;64.27;99989.28;5111626;28;20024;-65
2022/01/11 06:01:56;;;;;;;25.90;12.40;;;;;;;-3.11;64.75;99992.28;5114149;27;20118;-67
2022/01/11 06:04:23;;;;;;;35.53;14.35;;;;;;;-3.08;64.45;99989.28;5092367;28;20433;-67
2022/01/11 06:06:49;;;;;;;35.22;15.18;;;;;;;-3.03;64.41;99992.28;5111647;28;20035;-67
2022/01/11 06:09:14;;;;;;;49.85;20.73;;;;;;;-2.99;64.68;99999.00;5111372;28;20028;-68
2022/01/11 06:11:39;;;;;;;39.40;18.55;;;;;;;-2.99;64.26;100007.88;5111019;28;20094;-68
2022/01/11 06:14:05;;;;;;;54.40;23.42;;;;;;;-3.00;64.26;100003.50;5111044;28;20395;-68
2022/01/11 06:16:30;;;;;;;45.22;20.00;;;;;;;-2.99;64.25;100013.25;5090421;28;20031;-67
2022/01/11 06:18:56;;;;;;;43.05;18.50;;;;;;;-2.98;64.60;100019.47;5108501;28;20395;-67
2022/01/11 06:21:22;;;;;;;36.55;16.67;;;;;;;-3.03;64.52;100014.59;5110933;28;20028;-68
2022/01/11 06:23:47;;;;;;;36.33;17.25;;;;;;;-3.04;64.50;100031.69;5109957;28;20039;-67
2022/01/11 06:26:15;;;;;;;35.13;15.95;;;;;;;-3.02;64.50;100032.38;5110579;28;20036;-67
2022/01/11 06:28:41;;;;;;;43.17;20.33;;;;;;;-3.01;64.91;100041.28;5091766;28;20040;-67
2022/01/11 06:31:08;;;;;;;42.22;20.23;;;;;;;-2.98;64.77;100040.94;5109244;28;20030;-67
2022/01/11 06:33:33;;;;;;;33.67;16.10;;;;;;;-3.02;64.78;100043.09;5110017;28;20027;-68
2022/01/11 06:35:59;;;;;;;40.58;19.20;;;;;;;-3.04;65.17;100037.06;5110913;28;20044;-67
2022/01/11 06:38:24;;;;;;;42.88;19.48;;;;;;;-3.04;65.13;100041.63;5110475;28;20027;-68
2022/01/11 06:40:50;;;;;;;36.70;16.27;;;;;;;-3.10;65.07;100048.50;5107744;27;20040;-68
2022/01/11 06:43:15;;;;;;;41.95;16.60;;;;;;;-3.10;65.75;100056.56;5108303;28;20028;-67
2022/01/11 06:45:41;;;;;;;39.95;17.92;;;;;;;-3.11;65.37;100044.13;5109333;28;20051;-67
2022/01/11 06:48:08;;;;;;;43.38;18.40;;;;;;;-3.11;65.82;100052.19;5110052;28;20387;-68
2022/01/11 06:50:33;;;;;;;39.50;19.13;;;;;;;-3.12;65.56;100061.25;5110868;28;20185;-68
2022/01/11 06:52:59;;;;;;;46.63;20.17;;;;;;;-3.12;65.46;100055.03;5109461;28;20084;-69
2022/01/11 06:55:25;;;;;;;62.45;25.73;;;;;;;-3.15;65.74;100056.22;5108734;28;20155;-67
2022/01/11 06:57:51;;;;;;;46.85;21.23;;;;;;;-3.18;65.60;100067.28;5110280;28;20540;-68
2022/01/11 07:00:17;;;;;;;52.70;23.95;;;;;;;-3.24;65.76;100063.41;5109331;28;20016;-65
2022/01/11 07:02:43;;;;;;;51.03;21.08;;;;;;;-3.25;66.01;100077.00;5109956;28;20027;-68
2022/01/11 07:05:09;;;;;;;48.45;20.05;;;;;;;-3.29;66.21;100074.66;5091423;28;20028;-68
2022/01/11 07:07:35;;;;;;;69.82;30.65;;;;;;;-3.32;66.18;100083.03;5110539;28;20016;-68
2022/01/11 07:10:00;;;;;;;53.45;24.67;;;;;;;-3.29;66.66;100087.25;5110792;27;20031;-68
2022/01/11 07:12:26;;;;;;;76.55;30.27;;;;;;;-3.27;66.30;100090.59;5112152;27;20034;-68
2022/01/11 07:14:51;;;;;;;76.03;33.22;;;;;;;-3.24;66.37;100092.91;5109886;27;20019;-68
2022/01/11 07:17:17;;;;;;;65.85;27.20;;;;;;;-3.20;66.74;100098.81;5112324;27;20089;-66
2022/01/11 07:19:42;;;;;;;61.25;25.15;;;;;;;-3.15;66.76;100101.84;5110343;28;20155;-67
2022/01/11 07:22:09;;;;;;;62.47;26.73;;;;;;;-3.16;66.60;100089.44;5109163;28;20100;-65
2022/01/11 07:24:34;;;;;;;57.13;23.95;;;;;;;-3.15;66.60;100101.84;5106624;28;20556;-65
2022/01/11 07:26:59;;;;;;;61.17;27.83;;;;;;;-3.17;66.31;100107.34;5108632;28;20024;-67
2022/01/11 07:29:25;;;;;;;67.72;28.85;;;;;;;-3.21;66.47;100099.81;5104588;28;20023;-68
2022/01/11 07:31:50;;;;;;;76.40;33.25;;;;;;;-3.23;66.67;100102.66;5107026;28;20028;-67
2022/01/11 07:34:16;;;;;;;57.03;24.38;;;;;;;-3.21;67.08;100111.38;5105722;28;20032;-66
2022/01/11 07:36:42;;;;;;;59.42;26.08;;;;;;;-3.20;66.88;100107.69;5110804;27;20019;-66
2022/01/11 07:39:09;;;;;;;87.97;34.92;;;;;;;-3.22;66.70;100112.38;5115166;27;20026;-67
2022/01/11 07:41:35;;;;;;;58.75;27.30;;;;;;;-3.20;66.92;100112.22;5091317;27;20060;-67
2022/01/11 07:44:00;;;;;;;61.00;26.17;;;;;;;-3.24;66.87;100116.25;5104097;28;20055;-68
2022/01/11 07:46:26;;;;;;;54.20;23.10;;;;;;;-3.22;66.94;100124.97;5109427;28;20020;-67
2022/01/11 07:48:51;;;;;;;60.80;25.85;;;;;;;-3.26;66.82;100127.13;5090164;27;20047;-69
2022/01/11 07:51:17;;;;;;;77.05;32.78;;;;;;;-3.27;66.94;100127.31;5111024;28;20383;-68
2022/01/11 07:53:43;;;;;;;54.72;22.52;;;;;;;-3.29;67.54;100125.63;5107317;27;20459;-66
2022/01/11 07:56:08;;;;;;;61.65;26.98;;;;;;;-3.35;66.95;100120.09;5112535;27;20035;-66
2022/01/11 07:58:34;;;;;;;66.38;28.13;;;;;;;-3.44;67.62;100122.75;5106818;28;20058;-66
2022/01/11 08:01:00;;;;;;;64.63;25.90;;;;;;;-3.49;67.24;100126.94;5108454;28;20039;-68
2022/01/11 08:03:26;;;;;;;61.95;27.67;;;;;;;-3.52;67.57;100121.91;5109612;28;20035;-69
2022/01/11 08:05:52;;;;;;;62.15;25.90;;;;;;;-3.54;67.38;100124.72;5108879;28;20032;-68
2022/01/11 08:08:18;;;;;;;53.42;24.45;;;;;;;-3.53;67.61;100126.41;5108888;28;20035;-67
2022/01/11 08:10:43;;;;;;;73.53;31.10;;;;;;;-3.53;67.69;100131.75;5108273;28;20448;-67
2022/01/11 08:13:10;;;;;;;58.42;25.20;;;;;;;-3.49;67.96;100130.44;5107211;28;20092;-68
2022/01/11 08:15:37;;;;;;;62.72;28.73;;;;;;;-3.49;67.89;100132.28;5110460;28;20088;-68
2022/01/11 08:18:04;;;;;;;67.25;28.60;;;;;;;-3.53;68.07;100133.63;5107403;28;20471;-69
2022/01/11 08:20:29;;;;;;;78.45;36.55;;;;;;;-3.54;68.17;100137.31;5109230;28;20119;-68
2022/01/11 08:22:56;;;;;;;67.47;27.75;;;;;;;-3.55;68.48;100132.94;5109350;28;20439;-70
2022/01/11 08:25:21;;;;;;;134.05;50.15;;;;;;;-3.58;68.07;100136.78;5106355;28;20498;-70
2022/01/11 08:27:47;;;;;;;89.85;37.42;;;;;;;-3.57;67.88;100148.34;5109196;28;20043;-69
2022/01/11 08:30:12;;;;;;;69.22;28.73;;;;;;;-3.52;68.40;100146.03;5108791;28;20024;-67
2022/01/11 08:32:38;;;;;;;71.35;32.13;;;;;;;-3.49;68.19;100146.53;5111235;28;20027;-70
2022/01/11 08:35:05;;;;;;;63.03;27.83;;;;;;;-3.43;68.28;100153.06;5108932;28;20104;-70
2022/01/11 08:37:30;;;;;;;66.00;27.60;;;;;;;-3.42;68.32;100149.41;5109427;28;20027;-70
2022/01/11 08:39:56;;;;;;;73.50;32.05;;;;;;;-3.41;68.55;100152.94;5090896;28;20050;-70
2022/01/11 08:42:22;;;;;;;70.78;29.67;;;;;;;-3.40;68.52;100150.06;5108748;28;20100;-70
2022/01/11 08:44:49;;;;;;;60.88;27.27;;;;;;;-3.39;68.37;100145.56;5107961;28;20020;-71
2022/01/11 08:47:17;;;;;;;87.65;37.58;;;;;;;-3.39;68.65;100150.94;5107731;28;20027;-73
2022/01/11 08:49:43;;;;;;;75.93;33.22;;;;;;;-3.37;68.34;100157.78;5107630;28;20494;-71
2022/01/11 08:52:09;;;;;;;69.28;28.27;;;;;;;-3.34;68.36;100156.66;5106536;28;20023;-69
2022/01/11 08:54:35;;;;;;;65.03;29.90;;;;;;;-3.35;68.33;100158.47;5105528;28;20148;-68
2022/01/11 08:57:01;;;;;;;74.20;31.10;;;;;;;-3.37;68.78;100155.13;5109468;28;20028;-68
2022/01/11 08:59:27;;;;;;;59.80;26.75;;;;;;;-3.35;69.02;100163.84;5111107;28;20039;-68
2022/01/11 09:01:59;;;;;;;73.53;31.20;;;;;;;-3.38;68.23;100163.34;5111519;28;20142;-68
2022/01/11 09:04:26;;;;;;;68.97;30.27;;;;;;;-3.34;68.58;100162.84;5111152;28;20478;-68
2022/01/11 09:06:53;;;;;;;65.32;29.25;;;;;;;-3.32;68.31;100165.38;5112031;28;20475;-70
2022/01/11 09:09:19;;;;;;;76.68;30.08;;;;;;;-3.32;68.46;100158.16;5113017;28;20028;-69
2022/01/11 09:11:45;;;;;;;68.53;31.10;;;;;;;-3.31;68.55;100156.31;5094769;28;20034;-71
2022/01/11 09:14:11;;;;;;;66.03;27.83;;;;;;;-3.29;68.80;100160.50;5113017;28;20104;-68
2022/01/11 09:16:37;;;;;;;70.85;29.98;;;;;;;-3.25;68.64;100160.19;5112807;28;20088;-69
2022/01/11 09:19:02;;;;;;;69.05;29.83;;;;;;;-3.22;68.43;100158.00;5112876;28;20467;-68
2022/01/11 09:21:29;;;;;;;67.50;30.27;;;;;;;-3.16;68.63;100148.47;5094906;28;20404;-69
2022/01/11 09:23:55;;;;;;;66.72;30.63;;;;;;;-3.10;68.29;100152.31;5112560;28;20073;-69
2022/01/11 09:26:20;;;;;;;67.40;30.98;;;;;;;-3.06;68.47;100157.22;5112732;28;20019;-69
2022/01/11 09:28:45;;;;;;;79.40;35.85;;;;;;;-3.02;68.68;100153.16;5112464;28;20540;-70
2022/01/11 09:31:11;;;;;;;115.05;41.80;;;;;;;-3.02;68.69;100152.34;5113043;27;20528;-69
2022/01/11 09:33:37;;;;;;;114.53;41.83;;;;;;;-2.99;68.75;100152.00;5113211;28;20456;-68
2022/01/11 09:36:03;;;;;;;202.85;55.97;;;;;;;-2.91;68.70;100148.50;5111867;28;20391;-69
2022/01/11 09:38:29;;;;;;;189.65;54.28;;;;;;;-2.82;68.54;100146.66;5112333;28;20059;-68
2022/01/11 09:40:58;;;;;;;72.93;31.17;;;;;;;-2.78;68.56;100148.84;5112389;28;20054;-69
2022/01/11 09:43:26;;;;;;;129.25;46.85;;;;;;;-2.71;68.64;100146.31;5112787;28;20731;-70
2022/01/11 09:45:52;;;;;;;100.20;45.80;;;;;;;-2.61;68.70;100151.50;5111607;28;20498;-71
2022/01/11 09:48:20;;;;;;;71.82;31.75;;;;;;;-2.56;68.61;100144.66;5112342;28;20030;-70
2022/01/11 09:50:45;;;;;;;77.00;33.85;;;;;;;-2.51;68.27;100140.63;5112507;28;20024;-69
2022/01/11 09:53:11;;;;;;;70.72;32.92;;;;;;;-2.42;68.33;100142.28;5112163;28;20039;-70
2022/01/11 09:55:37;;;;;;;79.35;33.92;;;;;;;-2.34;68.31;100136.06;5112048;28;20027;-69
2022/01/11 09:58:03;;;;;;;63.75;28.92;;;;;;;-2.30;68.22;100132.03;5111711;28;20024;-69
2022/01/11 10:00:29;;;;;;;69.45;30.92;;;;;;;-2.27;67.87;100129.81;5112163;28;20032;-70
2022/01/11 10:02:54;;;;;;;80.40;32.38;;;;;;;-2.27;68.07;100127.13;5092114;28;20031;-69
2022/01/11 10:05:20;;;;;;;60.70;27.83;;;;;;;-2.25;67.71;100135.03;5091420;28;20024;-70
2022/01/11 10:07:45;;;;;;;76.80;33.58;;;;;;;-2.25;67.72;100138.56;5111960;28;20019;-69
2022/01/11 10:10:20;;;;;;;66.90;30.17;;;;;;;-2.21;67.46;100128.28;5109584;28;20046;-71
2022/01/11 10:12:51;;;;;;;70.82;29.88;;;;;;;-2.23;67.67;100130.31;5102726;27;20058;-71
2022/01/11 10:15:29;;;;;;;64.35;26.88;;;;;;;-2.22;67.50;100134.69;5102883;28;20028;-70
2022/01/11 10:17:54;;;;;;;80.22;32.50;;;;;;;-2.17;67.57;100132.31;5106778;27;20062;-69
2022/01/11 10:20:22;;;;;;;61.30;27.75;;;;;;;-2.10;67.42;100135.19;5108071;28;20039;-69
2022/01/11 10:23:00;;;;;;;59.92;26.75;;;;;;;-2.06;67.25;100138.34;5110294;27;20036;-70
2022/01/11 10:25:27;;;;;;;57.03;25.85;;;;;;;-2.03;67.60;100143.38;5093588;28;20032;-69
2022/01/11 10:28:01;;;;;;;62.25;27.85;;;;;;;-1.99;67.37;100140.16;5110363;28;20503;-69
2022/01/11 10:30:27;;;;;;;67.78;29.58;;;;;;;-1.93;66.99;100141.34;5110805;28;20023;-70
2022/01/11 10:32:56;;;;;;;63.90;27.55;;;;;;;-1.94;66.62;100142.34;5110492;28;20530;-69
2022/01/11 10:35:42;;;;;;;56.10;24.80;;;;;;;-1.90;67.15;100135.63;5108201;28;20024;-70
2022/01/11 10:38:10;;;;;;;63.15;27.60;;;;;;;-1.84;66.84;100131.38;5110853;28;20023;-68
2022/01/11 10:40:46;;;;;;;62.90;26.33;;;;;;;-1.77;66.53;100139.59;5109434;27;20052;-68
2022/01/11 10:43:14;;;;;;;57.83;24.85;;;;;;;-1.76;66.53;100135.88;5108568;28;20478;-68
2022/01/11 10:45:48;;;;;;;58.55;26.35;;;;;;;-1.81;66.22;100139.13;5090521;28;20167;-67
2022/01/11 10:48:15;;;;;;;59.35;26.58;;;;;;;-1.80;66.25;100144.31;5108614;27;20024;-68
2022/01/11 10:50:43;;;;;;;65.82;28.95;;;;;;;-1.75;66.64;100149.19;5109562;28;20019;-67
2022/01/11 10:53:13;;;;;;;69.95;32.25;;;;;;;-1.76;66.06;100141.28;5110890;27;20031;-68
2022/01/11 10:55:39;;;;;;;68.10;32.05;;;;;;;-1.74;66.27;100137.41;5110804;27;20368;-68
2022/01/11 10:58:07;;;;;;;67.50;31.80;;;;;;;-1.67;66.36;100142.94;5109740;27;20061;-70
2022/01/11 11:00:35;;;;;;;56.28;25.45;;;;;;;-1.61;66.45;100146.75;5108032;28;20032;-68
2022/01/11 11:03:14;;;;;;;64.28;27.27;;;;;;;-1.59;66.42;100150.13;5108676;28;20034;-68
2022/01/11 11:05:47;;;;;;;69.90;27.73;;;;;;;-1.61;66.23;100147.59;5109622;28;20348;-71
2022/01/11 11:08:14;;;;;;;63.05;28.58;;;;;;;-1.68;65.72;100150.16;5090060;28;20031;-70